Time;durP1;ratioP1;P1;durP2;ratioP2;P2;SDS_P1;SDS_P2;PMS_P1;PMS_P2;Temp;Humidity;BMP_temperature;BMP_pressure;BME280_temperature;BME280_humidity;BME280_pressure;Samples;Min_cycle;Max_cycle;Signal;HPM_P1;HPM_P2
2021/05/16 00:01:08;;;;;;;4.72;2.10;;;14.20;99.90;;;;;;5011770;28;20030;-72
2021/05/16 00:03:34;;;;;;;5.05;1.75;;;14.10;99.90;;;;;;5013538;28;20029;-73
2021/05/16 00:06:01;;;;;;;4.65;1.98;;;14.10;99.90;;;;;;5029486;28;20616;-72
2021/05/16 00:08:26;;;;;;;4.32;2.40;;;14.10;99.90;;;;;;5012295;28;20035;-72
2021/05/16 00:10:53;;;;;;;2.10;1.90;;;14.10;99.90;;;;;;5030258;28;20037;-72
2021/05/16 00:13:18;;;;;;;1.80;1.67;;;14.10;99.90;;;;;;5031798;28;20518;-72
2021/05/16 00:15:45;;;;;;;8.95;2.45;;;14.10;99.90;;;;;;5031814;28;20112;-72
2021/05/16 00:18:10;;;;;;;5.25;2.42;;;14.10;99.90;;;;;;5028327;28;20025;-72
2021/05/16 00:20:36;;;;;;;5.40;2.85;;;14.10;99.90;;;;;;5031303;28;20553;-72
2021/05/16 00:23:03;;;;;;;5.00;2.58;;;14.10;99.90;;;;;;5016962;28;20037;-72
2021/05/16 00:25:30;;;;;;;5.75;3.30;;;14.10;99.90;;;;;;5007182;28;20030;-72
2021/05/16 00:27:57;;;;;;;9.57;3.60;;;14.20;99.90;;;;;;5012657;28;20033;-73
2021/05/16 00:30:25;;;;;;;3.72;2.67;;;14.10;99.90;;;;;;5028883;28;20079;-73
2021/05/16 00:32:52;;;;;;;6.20;2.92;;;14.20;99.90;;;;;;5012117;28;20078;-72
2021/05/16 00:35:20;;;;;;;7.45;3.72;;;14.10;99.90;;;;;;5014137;28;20022;-72
2021/05/16 00:37:46;;;;;;;5.57;2.88;;;14.20;99.90;;;;;;5010800;28;20035;-73
2021/05/16 00:40:12;;;;;;;6.88;2.83;;;14.20;99.90;;;;;;5031639;28;20022;-72
2021/05/16 00:42:38;;;;;;;8.18;3.28;;;14.20;99.90;;;;;;5028180;28;20040;-72
2021/05/16 00:45:10;;;;;;;7.22;3.10;;;14.20;99.90;;;;;;5012924;28;20029;-73
2021/05/16 00:47:37;;;;;;;4.45;3.38;;;14.20;99.90;;;;;;5030711;28;20030;-72
2021/05/16 00:50:06;;;;;;;10.95;3.50;;;14.30;99.90;;;;;;5029849;28;20065;-72
2021/05/16 00:52:32;;;;;;;7.38;3.30;;;14.30;99.90;;;;;;5013914;28;20034;-74
2021/05/16 00:54:58;;;;;;;6.82;3.03;;;14.30;99.90;;;;;;5032089;28;20507;-73
2021/05/16 00:57:24;;;;;;;6.32;3.42;;;14.30;99.90;;;;;;5029912;28;20036;-73
2021/05/16 00:59:49;;;;;;;3.88;2.78;;;14.30;99.90;;;;;;5013246;28;20040;-73
2021/05/16 01:02:15;;;;;;;6.47;3.22;;;14.30;99.90;;;;;;5026730;28;20036;-73
2021/05/16 01:04:41;;;;;;;2.92;2.63;;;14.30;99.90;;;;;;5030169;28;20484;-73
2021/05/16 01:07:08;;;;;;;7.43;3.22;;;14.40;99.90;;;;;;5009006;28;20044;-73
2021/05/16 01:09:34;;;;;;;5.07;3.47;;;14.40;99.90;;;;;;5030452;28;20034;-73
2021/05/16 01:12:03;;;;;;;8.57;3.65;;;14.50;99.90;;;;;;5031421;28;20032;-73
2021/05/16 01:14:47;;;;;;;9.27;3.50;;;14.40;99.90;;;;;;5012061;28;20040;-73
2021/05/16 01:17:13;;;;;;;5.90;3.35;;;14.40;99.90;;;;;;5029300;28;20128;-72
2021/05/16 01:19:41;;;;;;;11.38;4.55;;;14.40;99.90;;;;;;5013184;28;20117;-72
2021/05/16 01:22:08;;;;;;;5.63;3.28;;;14.40;99.90;;;;;;5029137;28;20099;-73
2021/05/16 01:24:37;;;;;;;10.60;3.47;;;14.40;99.90;;;;;;5029125;28;20053;-73
2021/05/16 01:27:10;;;;;;;4.55;3.45;;;14.40;99.90;;;;;;5012189;28;20033;-72
2021/05/16 01:29:36;;;;;;;7.22;3.25;;;14.50;99.90;;;;;;5027747;28;20025;-72
2021/05/16 01:32:02;;;;;;;6.00;3.78;;;14.60;99.90;;;;;;5012389;28;20479;-72
2021/05/16 01:34:28;;;;;;;8.18;3.72;;;14.60;99.90;;;;;;5030942;28;20022;-73
2021/05/16 01:36:53;;;;;;;5.72;3.92;;;14.60;99.90;;;;;;5005721;28;20418;-73
2021/05/16 01:39:19;;;;;;;5.32;3.55;;;14.60;99.90;;;;;;5011986;28;20028;-73
2021/05/16 01:41:45;;;;;;;9.95;4.22;;;14.60;99.90;;;;;;5027340;28;20116;-73
2021/05/16 01:44:13;;;;;;;7.85;3.72;;;14.70;99.90;;;;;;5029593;28;20183;-73
2021/05/16 01:46:43;;;;;;;7.32;3.63;;;14.70;99.90;;;;;;5029885;28;20021;-73
2021/05/16 01:49:09;;;;;;;6.45;3.20;;;14.70;99.90;;;;;;5028518;28;20128;-73
2021/05/16 01:51:35;;;;;;;12.20;4.03;;;14.70;99.90;;;;;;5009384;28;20026;-73
2021/05/16 01:54:01;;;;;;;7.88;4.32;;;14.70;99.90;;;;;;5029379;28;20360;-73
2021/05/16 01:56:29;;;;;;;6.20;4.10;;;14.60;99.90;;;;;;5030372;28;20391;-73
2021/05/16 01:58:56;;;;;;;8.93;3.70;;;14.60;99.90;;;;;;5008735;28;20105;-73
2021/05/16 02:01:22;;;;;;;7.90;3.47;;;14.60;99.90;;;;;;5009498;28;20074;-71
2021/05/16 02:03:49;;;;;;;6.30;4.13;;;14.60;99.90;;;;;;5012326;28;20499;-72
2021/05/16 02:06:15;;;;;;;6.47;4.00;;;14.60;99.90;;;;;;5023358;28;20372;-73
2021/05/16 02:08:45;;;;;;;6.20;4.05;;;14.60;99.90;;;;;;5005148;28;20026;-73
2021/05/16 02:11:11;;;;;;;5.97;3.70;;;14.70;99.90;;;;;;5028346;28;20017;-73
2021/05/16 02:13:40;;;;;;;6.80;3.97;;;14.60;99.90;;;;;;5028656;28;20022;-73
2021/05/16 02:16:06;;;;;;;12.98;3.78;;;14.60;99.90;;;;;;5011409;28;20026;-73
2021/05/16 02:18:32;;;;;;;5.05;3.50;;;14.60;99.90;;;;;;5029281;28;20105;-73
2021/05/16 02:21:00;;;;;;;8.85;4.32;;;14.70;99.90;;;;;;5010480;28;20030;-73
2021/05/16 02:23:26;;;;;;;6.15;4.25;;;14.60;99.90;;;;;;5029713;28;20025;-74
2021/05/16 02:25:52;;;;;;;5.43;3.90;;;14.50;99.90;;;;;;5027611;28;20848;-73
2021/05/16 02:28:18;;;;;;;7.47;3.95;;;14.50;99.90;;;;;;5028601;28;20040;-72
2021/05/16 02:30:44;;;;;;;8.02;3.97;;;14.50;99.90;;;;;;5012210;28;20034;-73
2021/05/16 02:33:10;;;;;;;5.80;4.25;;;14.40;99.90;;;;;;5010876;28;20025;-73
2021/05/16 02:35:36;;;;;;;11.18;4.05;;;14.50;99.90;;;;;;5006856;28;20030;-72
2021/05/16 02:38:03;;;;;;;11.70;3.95;;;14.50;99.90;;;;;;5025784;28;20273;-72
2021/05/16 02:40:29;;;;;;;6.10;3.80;;;14.50;99.90;;;;;;5026720;28;20071;-72
2021/05/16 02:42:55;;;;;;;8.60;4.18;;;14.50;99.90;;;;;;5012555;28;20483;-72
2021/05/16 02:45:20;;;;;;;9.00;4.20;;;14.50;99.90;;;;;;5027097;28;20018;-71
2021/05/16 02:47:46;;;;;;;9.68;3.92;;;14.50;99.90;;;;;;5026459;28;20069;-72
2021/05/16 02:50:12;;;;;;;7.82;4.60;;;14.50;99.90;;;;;;5011302;28;20026;-72
2021/05/16 02:52:38;;;;;;;8.27;5.00;;;14.50;99.90;;;;;;5026886;28;20507;-72
2021/05/16 02:55:05;;;;;;;13.43;4.47;;;14.40;99.90;;;;;;5010376;28;20164;-72
2021/05/16 02:57:31;;;;;;;6.47;4.35;;;14.50;99.90;;;;;;5027713;28;20100;-72
2021/05/16 02:59:57;;;;;;;5.90;3.63;;;14.50;99.90;;;;;;5012811;28;20116;-73
2021/05/16 03:02:22;;;;;;;11.93;4.63;;;14.50;99.90;;;;;;5012554;28;20030;-73
2021/05/16 03:04:48;;;;;;;9.80;4.38;;;14.50;99.90;;;;;;5031753;28;20025;-73
2021/05/16 03:07:14;;;;;;;13.45;5.57;;;14.50;99.90;;;;;;5032228;28;20064;-73
2021/05/16 03:09:40;;;;;;;10.85;5.25;;;14.50;99.90;;;;;;5030126;28;20506;-72
2021/05/16 03:12:07;;;;;;;9.95;4.50;;;14.60;99.90;;;;;;5014197;28;20034;-72
2021/05/16 03:14:33;;;;;;;9.30;4.63;;;14.70;99.90;;;;;;5032368;28;20124;-72
2021/05/16 03:16:59;;;;;;;11.82;4.53;;;14.60;99.90;;;;;;5032459;28;20052;-72
2021/05/16 03:19:25;;;;;;;8.60;4.70;;;14.70;99.90;;;;;;5031913;28;20467;-72
2021/05/16 03:21:51;;;;;;;11.45;3.63;;;14.70;99.90;;;;;;5028477;28;20100;-72
2021/05/16 03:24:17;;;;;;;8.02;4.05;;;14.70;99.90;;;;;;5014065;28;20116;-72
2021/05/16 03:26:43;;;;;;;7.85;4.60;;;14.80;99.90;;;;;;5014493;28;20155;-73
2021/05/16 03:29:09;;;;;;;9.43;4.68;;;14.80;99.90;;;;;;5032008;28;20375;-73
2021/05/16 03:31:35;;;;;;;12.10;4.47;;;14.70;99.90;;;;;;5013516;28;20656;-73
2021/05/16 03:34:04;;;;;;;8.27;5.38;;;14.70;99.90;;;;;;5032176;28;20030;-73
2021/05/16 03:36:30;;;;;;;8.98;4.72;;;14.70;99.90;;;;;;5030583;28;20381;-73
2021/05/16 03:38:56;;;;;;;9.00;4.65;;;14.70;99.90;;;;;;5009800;28;20057;-73
2021/05/16 03:41:22;;;;;;;9.30;4.57;;;14.70;99.90;;;;;;5031634;28;20029;-73
2021/05/16 03:43:49;;;;;;;8.93;3.95;;;14.70;99.90;;;;;;5030704;28;20025;-73
2021/05/16 03:46:15;;;;;;;10.23;4.50;;;14.80;99.90;;;;;;5031278;28;20028;-73
2021/05/16 03:48:42;;;;;;;6.50;4.25;;;14.70;99.90;;;;;;5014665;28;20029;-73
2021/05/16 03:51:10;;;;;;;6.70;3.92;;;14.70;99.90;;;;;;5013861;28;20032;-73
2021/05/16 03:53:37;;;;;;;6.63;4.13;;;14.80;99.90;;;;;;5029953;28;20029;-74
2021/05/16 03:56:05;;;;;;;8.52;4.00;;;14.80;99.90;;;;;;5031385;28;20029;-73
2021/05/16 03:58:31;;;;;;;8.23;3.88;;;14.80;99.90;;;;;;5013894;28;20025;-73
2021/05/16 04:00:57;;;;;;;10.57;3.90;;;14.80;99.90;;;;;;5013498;28;20109;-73
2021/05/16 04:03:23;;;;;;;10.23;3.45;;;14.90;99.90;;;;;;5026411;28;20024;-73
2021/05/16 04:05:49;;;;;;;5.47;3.75;;;14.80;99.90;;;;;;5031176;28;20388;-73
2021/05/16 04:08:14;;;;;;;6.13;3.20;;;14.80;99.90;;;;;;5032148;28;20030;-74
2021/05/16 04:10:40;;;;;;;12.75;3.97;;;14.90;99.90;;;;;;5031684;28;20025;-74
2021/05/16 04:13:06;;;;;;;9.85;3.47;;;14.90;99.90;;;;;;5022566;28;20040;-73
2021/05/16 04:15:32;;;;;;;3.78;2.55;;;15.00;99.90;;;;;;5028988;28;20384;-74
2021/05/16 04:17:58;;;;;;;7.13;3.35;;;15.00;99.90;;;;;;5030829;28;20072;-72
2021/05/16 04:20:24;;;;;;;7.80;3.17;;;15.00;99.90;;;;;;5030902;28;20072;-73
2021/05/16 04:22:50;;;;;;;4.68;3.10;;;15.10;99.90;;;;;;5030944;28;20021;-73
2021/05/16 04:25:15;;;;;;;5.93;2.75;;;15.10;99.90;;;;;;5028927;28;20038;-74
2021/05/16 04:27:41;;;;;;;5.88;3.70;;;15.10;99.90;;;;;;5030764;28;20044;-74
2021/05/16 04:30:08;;;;;;;13.82;3.40;;;15.10;99.90;;;;;;5014698;28;20026;-73
2021/05/16 04:32:33;;;;;;;6.93;2.90;;;15.10;99.90;;;;;;5030969;28;20025;-74
2021/05/16 04:34:59;;;;;;;10.05;3.17;;;15.20;99.90;;;;;;5014684;28;20021;-74
2021/05/16 04:37:26;;;;;;;7.07;2.65;;;15.20;99.90;;;;;;5030397;28;20393;-74
2021/05/16 04:39:52;;;;;;;10.75;3.40;;;15.20;99.90;;;;;;5020534;28;20030;-74
2021/05/16 04:42:17;;;;;;;9.18;3.25;;;15.20;99.90;;;;;;5005379;28;20037;-74
2021/05/16 04:44:43;;;;;;;10.25;2.92;;;15.20;99.90;;;;;;5031327;28;20033;-73
2021/05/16 04:47:09;;;;;;;8.63;3.80;;;15.30;99.90;;;;;;5003062;28;20079;-73
2021/05/16 04:49:35;;;;;;;14.05;3.50;;;15.30;99.90;;;;;;5031221;28;20411;-73
2021/05/16 04:52:01;;;;;;;8.02;3.53;;;15.30;99.90;;;;;;5011731;28;20120;-73
2021/05/16 04:54:27;;;;;;;4.53;2.50;;;15.30;99.90;;;;;;5029711;28;20049;-73
2021/05/16 04:56:53;;;;;;;5.57;2.58;;;15.40;99.90;;;;;;5027754;28;20609;-73
2021/05/16 04:59:18;;;;;;;8.57;2.70;;;15.40;99.90;;;;;;5013496;28;20498;-73
2021/05/16 05:01:44;;;;;;;6.18;2.85;;;15.40;99.90;;;;;;5027468;28;20531;-74
2021/05/16 05:04:10;;;;;;;5.88;2.55;;;15.40;99.90;;;;;;5029251;28;20025;-74
2021/05/16 05:06:36;;;;;;;5.72;2.78;;;15.50;99.90;;;;;;5028617;28;20514;-74
2021/05/16 05:09:05;;;;;;;12.38;5.55;;;15.50;99.90;;;;;;5030065;28;20123;-73
2021/05/16 05:11:32;;;;;;;5.20;2.55;;;15.60;99.90;;;;;;5028854;28;20117;-73
2021/05/16 05:13:57;;;;;;;8.68;2.65;;;15.60;99.90;;;;;;5015989;28;20022;-73
2021/05/16 05:16:23;;;;;;;11.63;3.38;;;15.70;99.90;;;;;;5030232;28;20087;-74
2021/05/16 05:18:49;;;;;;;10.40;3.20;;;15.70;99.90;;;;;;5010368;28;20079;-73
2021/05/16 05:21:15;;;;;;;8.57;3.40;;;15.80;99.90;;;;;;5027589;28;20037;-73
2021/05/16 05:23:40;;;;;;;9.05;2.53;;;15.90;99.90;;;;;;5013110;28;20040;-74
2021/05/16 05:26:06;;;;;;;3.65;3.30;;;15.90;99.90;;;;;;5031609;28;20032;-73
2021/05/16 05:28:32;;;;;;;11.60;2.47;;;15.90;99.90;;;;;;5033075;28;20083;-74
2021/05/16 05:30:58;;;;;;;9.10;3.00;;;16.00;99.90;;;;;;5012230;28;20077;-73
2021/05/16 05:33:24;;;;;;;7.18;2.72;;;16.10;99.90;;;;;;5011960;28;20021;-74
2021/05/16 05:35:51;;;;;;;5.20;2.45;;;16.20;99.90;;;;;;5012795;28;20029;-72
2021/05/16 05:38:16;;;;;;;7.65;3.05;;;16.10;99.90;;;;;;5010893;28;20025;-73
2021/05/16 05:40:42;;;;;;;8.45;2.40;;;16.10;99.90;;;;;;5025953;28;20034;-74
2021/05/16 05:43:08;;;;;;;8.63;3.17;;;16.20;99.90;;;;;;5031297;28;20030;-75
2021/05/16 05:45:34;;;;;;;11.27;2.88;;;16.20;99.90;;;;;;5012659;28;20363;-73
2021/05/16 05:48:00;;;;;;;7.88;1.95;;;16.30;99.90;;;;;;5028626;28;20096;-74
2021/05/16 05:50:26;;;;;;;14.25;3.38;;;16.30;99.90;;;;;;5013302;28;20407;-73
2021/05/16 05:52:52;;;;;;;8.48;2.28;;;16.40;99.90;;;;;;5013388;28;20018;-74
2021/05/16 05:55:18;;;;;;;8.57;2.38;;;16.50;99.90;;;;;;5013585;28;20523;-73
2021/05/16 05:57:43;;;;;;;10.32;3.58;;;16.50;99.90;;;;;;5029765;28;20052;-73
2021/05/16 06:00:10;;;;;;;5.70;2.33;;;16.50;99.90;;;;;;5012557;28;20018;-73
2021/05/16 06:02:36;;;;;;;11.02;2.33;;;16.60;99.90;;;;;;5030652;28;20392;-74
2021/05/16 06:05:02;;;;;;;12.60;2.97;;;16.70;99.90;;;;;;5030377;28;20036;-74
2021/05/16 06:07:28;;;;;;;4.25;1.77;;;16.80;99.90;;;;;;5027272;28;20029;-74
2021/05/16 06:09:53;;;;;;;10.07;2.38;;;16.80;99.90;;;;;;5010883;28;20033;-73
2021/05/16 06:12:19;;;;;;;12.48;2.63;;;16.80;99.90;;;;;;5015467;28;20025;-74
2021/05/16 06:14:48;;;;;;;12.07;2.67;;;16.80;99.90;;;;;;5011919;28;20083;-74
2021/05/16 06:17:13;;;;;;;5.90;2.60;;;16.80;99.90;;;;;;5030528;28;20032;-73
2021/05/16 06:19:39;;;;;;;11.43;2.08;;;16.90;99.90;;;;;;5013434;28;20021;-73
2021/05/16 06:22:05;;;;;;;16.23;2.50;;;17.10;99.90;;;;;;5030747;28;20101;-74
2021/05/16 06:24:31;;;;;;;12.88;2.30;;;17.00;99.90;;;;;;5029434;28;20119;-74
2021/05/16 06:26:56;;;;;;;12.23;3.00;;;17.00;99.90;;;;;;5009957;28;20088;-74
2021/05/16 06:29:22;;;;;;;9.00;4.20;;;17.00;99.90;;;;;;5012193;28;20079;-73
2021/05/16 06:31:48;;;;;;;12.55;3.63;;;17.10;99.90;;;;;;5029940;28;20113;-74
2021/05/16 06:34:14;;;;;;;12.88;2.83;;;17.10;99.90;;;;;;5012768;28;20492;-74
2021/05/16 06:36:40;;;;;;;9.68;2.50;;;17.10;99.90;;;;;;5032547;28;20029;-73
2021/05/16 06:39:06;;;;;;;7.22;2.33;;;17.20;99.90;;;;;;5035286;28;20028;-74
2021/05/16 06:41:34;;;;;;;8.02;2.47;;;17.20;99.90;;;;;;5035047;28;20025;-74
2021/05/16 06:43:59;;;;;;;6.03;1.83;;;17.20;99.90;;;;;;5037319;28;20104;-74
2021/05/16 06:46:26;;;;;;;9.85;2.42;;;17.30;99.90;;;;;;5015187;28;20168;-73
2021/05/16 06:48:52;;;;;;;11.55;2.65;;;17.50;99.90;;;;;;5034404;28;20051;-74
2021/05/16 06:51:18;;;;;;;8.77;3.47;;;17.60;99.90;;;;;;5037122;28;20037;-75
2021/05/16 06:53:44;;;;;;;12.95;2.33;;;17.70;99.90;;;;;;5020003;28;20664;-75
2021/05/16 06:56:12;;;;;;;7.03;3.25;;;17.90;99.90;;;;;;5016435;28;20108;-74
2021/05/16 06:58:39;;;;;;;9.98;2.30;;;17.90;99.90;;;;;;5016759;28;20029;-73
2021/05/16 07:01:05;;;;;;;8.10;2.72;;;18.00;99.90;;;;;;5034952;28;20025;-73
2021/05/16 07:03:31;;;;;;;6.45;2.22;;;18.20;99.90;;;;;;5016501;28;20036;-75
2021/05/16 07:05:58;;;;;;;17.95;2.90;;;18.30;99.90;;;;;;5018716;28;20495;-74
2021/05/16 07:08:23;;;;;;;7.25;1.95;;;18.30;99.90;;;;;;5036018;28;20513;-74
2021/05/16 07:10:49;;;;;;;6.57;2.97;;;18.30;99.90;;;;;;5018559;28;20029;-75
2021/05/16 07:13:15;;;;;;;7.30;2.22;;;18.30;99.90;;;;;;5040735;28;20048;-75
2021/05/16 07:15:41;;;;;;;8.00;2.65;;;18.40;99.90;;;;;;5036580;28;20022;-75
2021/05/16 07:18:06;;;;;;;4.28;1.98;;;18.40;99.90;;;;;;5017699;28;20086;-76
2021/05/16 07:20:32;;;;;;;8.38;2.42;;;18.60;99.90;;;;;;5019469;28;20021;-75
2021/05/16 07:23:00;;;;;;;7.40;1.95;;;18.60;99.90;;;;;;5033422;28;20060;-76
2021/05/16 07:25:27;;;;;;;5.97;2.72;;;18.50;99.90;;;;;;5034605;28;20040;-75
2021/05/16 07:27:53;;;;;;;15.73;2.50;;;18.30;99.90;;;;;;5022349;28;20480;-71
2021/05/16 07:30:19;;;;;;;8.13;3.13;;;18.30;99.90;;;;;;5033855;28;20036;-71
2021/05/16 07:32:45;;;;;;;10.45;2.63;;;18.50;99.90;;;;;;5031114;28;20036;-72
2021/05/16 07:35:11;;;;;;;15.43;4.13;;;18.90;99.90;;;;;;5033247;28;20013;-71
2021/05/16 07:37:37;;;;;;;12.60;1.95;;;18.90;99.90;;;;;;5031368;28;20101;-71
2021/05/16 07:40:05;;;;;;;10.93;2.15;;;18.80;99.90;;;;;;5027017;28;20049;-72
2021/05/16 07:42:31;;;;;;;12.98;2.65;;;18.60;99.90;;;;;;5014455;28;20452;-72
2021/05/16 07:44:57;;;;;;;10.30;2.33;;;18.50;99.90;;;;;;5030505;28;20044;-72
2021/05/16 07:47:23;;;;;;;4.90;1.80;;;18.30;99.90;;;;;;5032933;28;20112;-72
2021/05/16 07:49:49;;;;;;;7.63;2.17;;;18.40;99.90;;;;;;5033631;28;20104;-71
2021/05/16 07:52:15;;;;;;;11.00;2.13;;;18.40;99.90;;;;;;5033462;28;20029;-70
2021/05/16 07:54:40;;;;;;;10.88;2.03;;;18.30;99.90;;;;;;5034628;28;20419;-73
2021/05/16 07:57:08;;;;;;;7.47;2.97;;;18.20;99.90;;;;;;5016232;28;20030;-72
2021/05/16 07:59:35;;;;;;;7.57;2.63;;;18.20;99.90;;;;;;5033408;28;20029;-71
2021/05/16 08:02:01;;;;;;;8.75;1.80;;;18.40;99.90;;;;;;5015097;28;20041;-71
2021/05/16 08:04:27;;;;;;;6.07;2.30;;;18.60;99.90;;;;;;5030651;28;20029;-71
2021/05/16 08:06:55;;;;;;;7.70;2.25;;;18.80;99.90;;;;;;5032224;28;20041;-72
2021/05/16 08:09:21;;;;;;;7.50;2.00;;;18.90;99.90;;;;;;5031146;28;20025;-72
2021/05/16 08:11:46;;;;;;;3.85;1.77;;;19.20;99.90;;;;;;5006435;28;20041;-71
2021/05/16 08:14:12;;;;;;;8.25;2.05;;;19.30;99.90;;;;;;5023014;28;20018;-72
2021/05/16 08:16:38;;;;;;;4.80;2.28;;;19.30;99.90;;;;;;5014902;28;20444;-75
2021/05/16 08:19:03;;;;;;;4.97;2.38;;;19.40;99.90;;;;;;5015053;28;20048;-74
2021/05/16 08:21:29;;;;;;;4.35;2.90;;;19.40;99.90;;;;;;5032370;28;20040;-72
2021/05/16 08:23:55;;;;;;;9.15;2.40;;;19.50;99.90;;;;;;5034327;28;20434;-73
2021/05/16 08:26:20;;;;;;;7.30;2.63;;;19.50;99.90;;;;;;5032474;28;20040;-71
2021/05/16 08:28:46;;;;;;;7.85;2.47;;;19.60;99.90;;;;;;5014523;28;20369;-73
2021/05/16 08:31:12;;;;;;;12.23;2.47;;;19.90;99.90;;;;;;5032875;28;20033;-72
2021/05/16 08:33:38;;;;;;;12.98;2.03;;;19.90;99.90;;;;;;5032563;28;20029;-70
2021/05/16 08:36:04;;;;;;;6.70;2.15;;;19.80;99.90;;;;;;5014472;28;20034;-72
2021/05/16 08:38:29;;;;;;;5.10;1.88;;;19.10;99.90;;;;;;5014312;28;20048;-72
2021/05/16 08:40:55;;;;;;;9.52;2.38;;;19.00;99.90;;;;;;5014013;28;20064;-73
2021/05/16 08:43:21;;;;;;;9.43;3.63;;;19.00;99.90;;;;;;5016547;28;20044;-72
2021/05/16 08:45:47;;;;;;;5.38;2.17;;;19.00;99.90;;;;;;5012842;28;20076;-73
2021/05/16 08:48:13;;;;;;;6.72;2.83;;;19.10;99.90;;;;;;5012410;28;20125;-73
2021/05/16 08:50:39;;;;;;;6.28;2.08;;;19.20;99.90;;;;;;5013751;28;20030;-72
2021/05/16 08:53:05;;;;;;;8.00;2.70;;;19.30;99.90;;;;;;5014669;28;20026;-72
2021/05/16 08:55:31;;;;;;;6.05;2.20;;;19.30;99.90;;;;;;5014061;28;20387;-72
2021/05/16 08:57:57;;;;;;;5.13;2.70;;;19.40;99.90;;;;;;5031962;28;20029;-70
2021/05/16 09:00:26;;;;;;;18.88;3.08;;;19.30;99.90;;;;;;5031016;28;20013;-71
2021/05/16 09:03:14;;;;;;;11.60;2.38;;;19.40;99.90;;;;;;5032008;28;20018;-72
2021/05/16 09:05:51;;;;;;;6.90;2.55;;;19.40;99.90;;;;;;5013742;28;20108;-71
2021/05/16 09:08:20;;;;;;;11.70;2.50;;;19.70;99.90;;;;;;5031888;28;20036;-66
2021/05/16 09:10:50;;;;;;;7.63;1.60;;;20.00;99.90;;;;;;5030791;28;20045;-67
2021/05/16 09:13:21;;;;;;;7.35;2.65;;;20.20;99.90;;;;;;5029241;28;20021;-68
2021/05/16 09:16:10;;;;;;;4.70;1.88;;;20.40;99.90;;;;;;5030516;28;20018;-66
2021/05/16 09:18:43;;;;;;;10.57;1.90;;;20.30;99.90;;;;;;4999326;28;20056;-67
2021/05/16 09:21:28;;;;;;;5.00;2.85;;;20.30;99.90;;;;;;5031521;28;20030;-68
2021/05/16 09:24:03;;;;;;;3.85;2.65;;;20.20;99.90;;;;;;5013923;28;20086;-66
2021/05/16 09:26:48;;;;;;;8.63;2.85;;;20.00;99.90;;;;;;5031619;28;20021;-71
2021/05/16 09:29:24;;;;;;;6.97;3.25;;;19.90;99.90;;;;;;5022835;28;20033;-73
2021/05/16 09:31:51;;;;;;;12.60;3.30;;;20.00;99.90;;;;;;5028568;28;20030;-75
2021/05/16 09:34:17;;;;;;;8.82;3.22;;;19.90;99.90;;;;;;5032713;28;20068;-75
2021/05/16 09:36:47;;;;;;;8.77;2.33;;;19.80;99.90;;;;;;5014138;28;20021;-73
2021/05/16 09:39:28;;;;;;;7.88;2.08;;;19.60;99.90;;;;;;5032083;28;20022;-71
2021/05/16 09:42:07;;;;;;;5.30;2.30;;;19.70;99.90;;;;;;5010765;28;20437;-73
2021/05/16 09:44:48;;;;;;;8.32;2.40;;;19.80;99.90;;;;;;5010591;28;20514;-72
2021/05/16 09:47:21;;;;;;;6.18;3.42;;;19.90;99.90;;;;;;5031373;28;20036;-74
2021/05/16 09:49:58;;;;;;;8.57;2.88;;;20.00;99.90;;;;;;5013884;28;20038;-74
2021/05/16 09:52:27;;;;;;;3.92;2.47;;;20.00;99.90;;;;;;5030701;28;20057;-73
2021/05/16 09:54:57;;;;;;;9.93;2.30;;;20.10;99.90;;;;;;5013520;28;20113;-73
2021/05/16 09:57:25;;;;;;;7.13;2.80;;;20.20;99.90;;;;;;5013499;28;20028;-73
2021/05/16 09:59:52;;;;;;;4.63;2.50;;;20.50;99.90;;;;;;5014021;28;20376;-73
2021/05/16 10:02:20;;;;;;;6.90;2.35;;;20.50;99.90;;;;;;5012946;28;20034;-74
2021/05/16 10:04:47;;;;;;;9.05;3.20;;;20.60;99.90;;;;;;5033069;28;20026;-74
2021/05/16 10:07:13;;;;;;;7.47;2.85;;;20.60;99.90;;;;;;5013715;28;20415;-76
2021/05/16 10:09:39;;;;;;;4.20;3.13;;;20.40;99.90;;;;;;5013334;28;20037;-74
2021/05/16 10:12:06;;;;;;;8.25;2.83;;;20.10;99.90;;;;;;5010909;28;20040;-76
2021/05/16 10:14:36;;;;;;;4.50;2.92;;;20.00;99.90;;;;;;5025914;28;20032;-74
2021/05/16 10:17:03;;;;;;;4.05;2.33;;;20.00;99.90;;;;;;5031529;28;20028;-76
2021/05/16 10:19:35;;;;;;;11.57;3.70;;;20.00;99.90;;;;;;5017350;28;20571;-74
2021/05/16 10:22:11;;;;;;;;;;;20.10;99.90;;;;;;5026328;28;20404;-71
2021/05/16 10:24:44;;;;;;;11.00;3.10;;;20.10;99.90;;;;;;5018546;28;20436;-73
2021/05/16 10:27:22;;;;;;;14.30;2.65;;;20.40;99.90;;;;;;5012838;28;20029;-75
2021/05/16 10:29:53;;;;;;;10.27;3.20;;;20.80;99.90;;;;;;5030710;28;20462;-73
2021/05/16 10:32:41;;;;;;;9.57;2.72;;;21.00;99.90;;;;;;5011978;28;20055;-74
2021/05/16 10:35:10;;;;;;;9.07;2.45;;;21.50;99.90;;;;;;5013100;28;20029;-73
2021/05/16 10:37:55;;;;;;;5.10;2.50;;;21.70;99.90;;;;;;5031496;28;20084;-71
2021/05/16 10:40:21;;;;;;;4.15;2.53;;;22.00;99.90;;;;;;5028064;28;20026;-70
2021/05/16 10:42:47;;;;;;;12.00;2.30;;;22.20;99.90;;;;;;5028318;28;20033;-73
2021/05/16 10:45:14;;;;;;;7.20;2.13;;;22.40;99.90;;;;;;4993381;28;20510;-71
2021/05/16 10:47:53;;;;;;;10.50;3.63;;;22.20;99.90;;;;;;5026556;28;20034;-73
2021/05/16 10:50:24;;;;;;;9.70;3.00;;;22.20;99.90;;;;;;5014165;28;20044;-71
2021/05/16 10:53:00;;;;;;;6.10;2.78;;;21.70;99.90;;;;;;5011464;28;20053;-72
2021/05/16 10:55:32;;;;;;;6.82;3.70;;;21.50;99.90;;;;;;5018487;28;20388;-72
2021/05/16 10:57:58;;;;;;;10.73;2.67;;;21.30;99.90;;;;;;5010885;28;20022;-73
2021/05/16 11:00:25;;;;;;;7.68;3.13;;;21.10;99.90;;;;;;5028035;28;20037;-73
2021/05/16 11:03:18;;;;;;;7.97;2.83;;;20.80;99.90;;;;;;5031514;28;20021;-74
2021/05/16 11:05:57;;;;;;;8.90;3.75;;;20.70;99.90;;;;;;5026883;28;20061;-74
2021/05/16 11:08:25;;;;;;;7.43;4.05;;;20.80;99.90;;;;;;5010739;28;20476;-73
2021/05/16 11:10:52;;;;;;;6.60;4.72;;;20.90;99.90;;;;;;5016625;28;20395;-72
2021/05/16 11:13:26;;;;;;;6.05;2.97;;;20.90;99.90;;;;;;5011611;28;20036;-73
2021/05/16 11:16:07;;;;;;;5.10;2.35;;;21.00;99.90;;;;;;5010385;28;20030;-73
2021/05/16 11:18:36;;;;;;;18.20;13.10;;;21.10;99.90;;;;;;5016586;28;20036;-72
2021/05/16 11:21:06;;;;;;;20.20;12.77;;;21.10;99.90;;;;;;5029602;28;20220;-72
2021/05/16 11:23:34;;;;;;;17.08;8.32;;;21.20;99.90;;;;;;5029849;28;20026;-72
2021/05/16 11:26:02;;;;;;;16.88;10.80;;;21.50;99.90;;;;;;5013729;28;20164;-73
2021/05/16 11:28:31;;;;;;;11.98;6.22;;;21.70;99.90;;;;;;4997408;28;20030;-71
2021/05/16 11:30:58;;;;;;;7.07;4.03;;;22.20;99.90;;;;;;5019029;28;20034;-70
2021/05/16 11:33:29;;;;;;;7.72;2.95;;;22.50;99.90;;;;;;5015166;28;20021;-71
2021/05/16 11:35:57;;;;;;;12.30;4.45;;;22.60;99.90;;;;;;5015018;28;20025;-71
2021/05/16 11:38:26;;;;;;;15.07;4.72;;;22.60;99.90;;;;;;5012339;28;20399;-70
2021/05/16 11:40:54;;;;;;;4.13;2.38;;;22.70;99.90;;;;;;4998032;28;20458;-70
2021/05/16 11:43:30;;;;;;;10.25;3.08;;;22.60;99.90;;;;;;5010635;28;20060;-71
2021/05/16 11:45:57;;;;;;;8.02;2.67;;;22.80;99.90;;;;;;5031674;28;20092;-72
2021/05/16 11:48:42;;;;;;;7.20;2.92;;;22.90;99.90;;;;;;5013480;28;20037;-72
2021/05/16 11:51:16;;;;;;;5.80;3.22;;;22.60;99.90;;;;;;5023435;28;20030;-70
2021/05/16 11:53:56;;;;;;;11.27;2.87;;;22.30;99.90;;;;;;5029679;28;20508;-72
2021/05/16 11:56:24;;;;;;;14.23;2.78;;;22.20;99.90;;;;;;5015183;28;20275;-72
2021/05/16 11:58:56;;;;;;;8.95;3.05;;;21.90;99.90;;;;;;5015497;28;20033;-70
2021/05/16 12:01:23;;;;;;;8.50;2.00;;;21.90;99.90;;;;;;5033035;28;20049;-70
2021/05/16 12:04:05;;;;;;;10.73;2.83;;;21.90;99.90;;;;;;5022313;28;20455;-73
2021/05/16 12:06:43;;;;;;;9.38;2.95;;;22.10;99.90;;;;;;5014055;28;20029;-72
2021/05/16 12:09:14;;;;;;;8.95;2.40;;;22.00;99.90;;;;;;4998284;28;20046;-69
2021/05/16 12:11:42;;;;;;;5.30;2.17;;;22.00;99.90;;;;;;5026345;28;20029;-71
2021/05/16 12:14:16;;;;;;;13.75;2.63;;;21.80;99.90;;;;;;5029178;28;20031;-72
2021/05/16 12:16:55;;;;;;;11.40;2.30;;;21.60;99.90;;;;;;5015028;28;20507;-72
2021/05/16 12:19:32;;;;;;;6.15;2.67;;;21.50;99.90;;;;;;5003722;28;20037;-73
2021/05/16 12:22:07;;;;;;;13.90;2.72;;;21.30;99.90;;;;;;5030898;28;20093;-69
2021/05/16 12:24:55;;;;;;;5.15;2.30;;;21.20;99.90;;;;;;5013892;28;20038;-72
2021/05/16 12:27:21;;;;;;;6.25;2.50;;;21.10;99.90;;;;;;4996265;28;20026;-70
2021/05/16 12:29:48;;;;;;;10.23;2.55;;;21.20;99.90;;;;;;5010800;28;20044;-72
2021/05/16 12:32:28;;;;;;;4.95;1.90;;;21.40;99.90;;;;;;5032102;28;20119;-69
2021/05/16 12:34:55;;;;;;;9.18;3.28;;;21.80;99.90;;;;;;5031374;28;20025;-72
2021/05/16 12:37:23;;;;;;;5.78;2.35;;;22.20;99.90;;;;;;5015145;28;20033;-70
2021/05/16 12:39:55;;;;;;;4.70;1.58;;;22.40;99.90;;;;;;5013183;28;20038;-69
2021/05/16 12:42:41;;;;;;;10.43;2.78;;;22.60;99.90;;;;;;5032426;28;20026;-73
2021/05/16 12:45:19;;;;;;;10.02;1.65;;;22.60;99.90;;;;;;5013933;28;20029;-72
2021/05/16 12:48:07;;;;;;;5.57;2.20;;;22.50;99.90;;;;;;5030573;28;20026;-70